sensor_id;sensor_type;location;lat;lon;timestamp;pressure;altitude;pressure_sealevel;temperature;humidity
58739;BME280;44512;53.046;18.604;2023-04-28T00:04:46;102109.61;;;6.28;49.26
58739;BME280;44512;53.046;18.604;2023-04-28T00:15:15;102107.60;;;6.10;49.51
58739;BME280;44512;53.046;18.604;2023-04-28T00:25:43;102113.35;;;5.96;49.66
58739;BME280;44512;53.046;18.604;2023-04-28T00:36:12;102111.00;;;5.82;49.92
58739;BME280;44512;53.046;18.604;2023-04-28T00:46:41;102124.53;;;5.70;50.15
58739;BME280;44512;53.046;18.604;2023-04-28T00:57:09;102123.89;;;5.57;50.30
58739;BME280;44512;53.046;18.604;2023-04-28T01:07:37;102132.32;;;5.43;50.52
58739;BME280;44512;53.046;18.604;2023-04-28T01:18:05;102123.60;;;5.30;50.55
58739;BME280;44512;53.046;18.604;2023-04-28T01:28:34;102128.20;;;5.18;50.75
58739;BME280;44512;53.046;18.604;2023-04-28T01:39:03;102126.68;;;5.04;51.02
58739;BME280;44512;53.046;18.604;2023-04-28T01:49:31;102127.45;;;4.95;51.53
58739;BME280;44512;53.046;18.604;2023-04-28T01:59:59;102123.45;;;4.89;51.70
58739;BME280;44512;53.046;18.604;2023-04-28T02:10:28;102117.30;;;4.78;51.98
58739;BME280;44512;53.046;18.604;2023-04-28T02:20:57;102118.06;;;4.68;52.26
58739;BME280;44512;53.046;18.604;2023-04-28T02:31:25;102128.59;;;4.60;52.49
58739;BME280;44512;53.046;18.604;2023-04-28T02:41:54;102130.91;;;4.54;52.91
58739;BME280;44512;53.046;18.604;2023-04-28T02:52:22;102124.73;;;4.42;53.11
58739;BME280;44512;53.046;18.604;2023-04-28T03:02:50;102123.76;;;4.43;53.23
58739;BME280;44512;53.046;18.604;2023-04-28T03:13:19;102119.88;;;4.36;53.69
58739;BME280;44512;53.046;18.604;2023-04-28T03:23:47;102122.09;;;4.31;53.99
58739;BME280;44512;53.046;18.604;2023-04-28T03:34:16;102122.34;;;4.28;54.11
58739;BME280;44512;53.046;18.604;2023-04-28T03:44:44;102121.86;;;4.23;54.34
58739;BME280;44512;53.046;18.604;2023-04-28T03:55:13;102137.22;;;4.21;54.72
58739;BME280;44512;53.046;18.604;2023-04-28T04:05:41;102137.94;;;4.23;55.27
58739;BME280;44512;53.046;18.604;2023-04-28T04:16:10;102145.73;;;4.26;55.92
58739;BME280;44512;53.046;18.604;2023-04-28T04:26:38;102147.20;;;4.30;56.73
58739;BME280;44512;53.046;18.604;2023-04-28T04:37:08;102143.74;;;4.39;57.62
58739;BME280;44512;53.046;18.604;2023-04-28T04:47:35;102151.65;;;4.52;58.38
58739;BME280;44512;53.046;18.604;2023-04-28T04:58:04;102142.47;;;4.65;58.97
58739;BME280;44512;53.046;18.604;2023-04-28T05:08:32;102146.57;;;4.81;59.38
58739;BME280;44512;53.046;18.604;2023-04-28T05:19:00;102145.85;;;5.00;59.69
58739;BME280;44512;53.046;18.604;2023-04-28T05:29:29;102153.92;;;5.20;59.51
58739;BME280;44512;53.046;18.604;2023-04-28T05:39:57;102154.20;;;5.38;59.05
58739;BME280;44512;53.046;18.604;2023-04-28T05:50:26;102155.16;;;5.58;58.21
58739;BME280;44512;53.046;18.604;2023-04-28T06:00:54;102168.42;;;5.81;57.30
58739;BME280;44512;53.046;18.604;2023-04-28T06:11:22;102164.86;;;6.01;56.33
58739;BME280;44512;53.046;18.604;2023-04-28T06:21:51;102155.59;;;6.24;55.25
58739;BME280;44512;53.046;18.604;2023-04-28T06:32:19;102163.88;;;6.52;53.83
58739;BME280;44512;53.046;18.604;2023-04-28T06:42:48;102152.58;;;6.77;53.00
58739;BME280;44512;53.046;18.604;2023-04-28T06:53:16;102151.72;;;6.96;52.81
58739;BME280;44512;53.046;18.604;2023-04-28T07:03:45;102136.13;;;7.19;51.03
58739;BME280;44512;53.046;18.604;2023-04-28T07:14:13;102138.05;;;7.46;49.22
58739;BME280;44512;53.046;18.604;2023-04-28T07:24:42;102118.30;;;7.65;49.00
58739;BME280;44512;53.046;18.604;2023-04-28T07:35:10;102110.83;;;7.87;46.63
58739;BME280;44512;53.046;18.604;2023-04-28T07:45:38;102099.48;;;8.10;44.96
58739;BME280;44512;53.046;18.604;2023-04-28T07:56:07;102096.21;;;8.34;43.69
58739;BME280;44512;53.046;18.604;2023-04-28T08:06:35;102094.10;;;8.56;43.17
58739;BME280;44512;53.046;18.604;2023-04-28T08:17:03;102099.65;;;8.72;41.49
58739;BME280;44512;53.046;18.604;2023-04-28T08:27:32;102077.97;;;8.82;41.01
58739;BME280;44512;53.046;18.604;2023-04-28T08:38:00;102071.55;;;9.01;38.14
58739;BME280;44512;53.046;18.604;2023-04-28T08:48:32;102074.19;;;9.19;37.91
58739;BME280;44512;53.046;18.604;2023-04-28T08:59:01;102058.22;;;9.25;38.57
58739;BME280;44512;53.046;18.604;2023-04-28T09:09:29;102054.59;;;9.43;37.29
58739;BME280;44512;53.046;18.604;2023-04-28T09:19:54;102038.76;;;9.56;38.00
58739;BME280;44512;53.046;18.604;2023-04-28T09:40:56;102021.84;;;9.88;36.28
58739;BME280;44512;53.046;18.604;2023-04-28T09:51:20;102016.31;;;10.06;35.17
58739;BME280;44512;53.046;18.604;2023-04-28T10:01:48;102004.48;;;10.23;33.79
58739;BME280;44512;53.046;18.604;2023-04-28T10:12:17;101994.06;;;10.36;33.95
58739;BME280;44512;53.046;18.604;2023-04-28T10:43:41;101972.73;;;10.82;33.68
58739;BME280;44512;53.046;18.604;2023-04-28T10:54:09;101956.09;;;11.02;32.91
58739;BME280;44512;53.046;18.604;2023-04-28T11:05:27;101944.52;;;11.16;33.16
58739;BME280;44512;53.046;18.604;2023-04-28T11:15:12;101927.91;;;11.27;33.53
58739;BME280;44512;53.046;18.604;2023-04-28T11:36:03;101928.70;;;11.67;32.73
58739;BME280;44512;53.046;18.604;2023-04-28T11:46:31;101930.27;;;11.92;31.81
58739;BME280;44512;53.046;18.604;2023-04-28T11:57:00;101917.31;;;12.03;31.87
58739;BME280;44512;53.046;18.604;2023-04-28T12:07:28;101908.38;;;12.17;31.75
58739;BME280;44512;53.046;18.604;2023-04-28T12:18:08;101899.81;;;12.28;31.76
58739;BME280;44512;53.046;18.604;2023-04-28T12:38:53;101874.98;;;12.69;31.63
58739;BME280;44512;53.046;18.604;2023-04-28T12:49:21;101863.27;;;12.83;30.95
58739;BME280;44512;53.046;18.604;2023-04-28T12:59:49;101856.41;;;13.02;30.98
58739;BME280;44512;53.046;18.604;2023-04-28T13:10:18;101832.60;;;13.19;31.51
58739;BME280;44512;53.046;18.604;2023-04-28T13:20:46;101838.47;;;13.37;31.32
58739;BME280;44512;53.046;18.604;2023-04-28T13:31:15;101822.63;;;13.62;31.57
58739;BME280;44512;53.046;18.604;2023-04-28T13:41:43;101791.86;;;13.83;31.80
58739;BME280;44512;53.046;18.604;2023-04-28T13:52:11;101784.95;;;14.08;31.73
58739;BME280;44512;53.046;18.604;2023-04-28T14:02:40;101768.64;;;14.43;31.21
58739;BME280;44512;53.046;18.604;2023-04-28T14:13:08;101767.53;;;14.66;31.07
58739;BME280;44512;53.046;18.604;2023-04-28T14:23:36;101755.23;;;14.83;31.85
58739;BME280;44512;53.046;18.604;2023-04-28T14:34:05;101747.40;;;15.15;32.09
58739;BME280;44512;53.046;18.604;2023-04-28T14:49:42;101729.00;;;15.56;30.69
58739;BME280;44512;53.046;18.604;2023-04-28T15:00:11;101713.91;;;15.87;30.22
58739;BME280;44512;53.046;18.604;2023-04-28T15:10:39;101713.86;;;16.13;29.36
58739;BME280;44512;53.046;18.604;2023-04-28T15:21:07;101703.93;;;16.39;28.84
58739;BME280;44512;53.046;18.604;2023-04-28T15:31:36;101702.41;;;16.43;28.86
58739;BME280;44512;53.046;18.604;2023-04-28T15:42:04;101697.37;;;16.47;29.42
58739;BME280;44512;53.046;18.604;2023-04-28T15:52:32;101685.98;;;16.56;29.30
58739;BME280;44512;53.046;18.604;2023-04-28T16:03:00;101683.02;;;16.64;29.27
58739;BME280;44512;53.046;18.604;2023-04-28T16:13:29;101669.75;;;16.75;29.56
58739;BME280;44512;53.046;18.604;2023-04-28T16:23:57;101660.67;;;16.81;29.69
58739;BME280;44512;53.046;18.604;2023-04-28T16:34:26;101653.02;;;16.89;29.88
58739;BME280;44512;53.046;18.604;2023-04-28T16:44:54;101640.41;;;16.88;29.83
58739;BME280;44512;53.046;18.604;2023-04-28T16:55:22;101616.95;;;16.74;29.93
58739;BME280;44512;53.046;18.604;2023-04-28T17:05:51;101627.52;;;16.57;30.29
58739;BME280;44512;53.046;18.604;2023-04-28T17:16:19;101621.96;;;16.39;30.41
58739;BME280;44512;53.046;18.604;2023-04-28T17:26:47;101621.81;;;16.21;31.09
58739;BME280;44512;53.046;18.604;2023-04-28T17:37:15;101618.09;;;16.08;31.48
58739;BME280;44512;53.046;18.604;2023-04-28T17:47:44;101604.68;;;15.94;31.79
58739;BME280;44512;53.046;18.604;2023-04-28T17:58:12;101614.37;;;15.83;32.22
58739;BME280;44512;53.046;18.604;2023-04-28T18:08:40;101610.20;;;15.67;32.86
58739;BME280;44512;53.046;18.604;2023-04-28T18:19:09;101615.22;;;15.50;33.27
58739;BME280;44512;53.046;18.604;2023-04-28T18:29:37;101623.20;;;15.32;33.53
58739;BME280;44512;53.046;18.604;2023-04-28T18:40:05;101621.09;;;15.14;33.96
58739;BME280;44512;53.046;18.604;2023-04-28T18:50:34;101630.51;;;14.98;34.28
58739;BME280;44512;53.046;18.604;2023-04-28T19:01:02;101618.95;;;14.83;34.64
58739;BME280;44512;53.046;18.604;2023-04-28T19:11:30;101619.34;;;14.67;35.00
58739;BME280;44512;53.046;18.604;2023-04-28T19:21:59;101623.27;;;14.51;35.37
58739;BME280;44512;53.046;18.604;2023-04-28T19:32:28;101621.72;;;14.35;35.83
58739;BME280;44512;53.046;18.604;2023-04-28T19:42:56;101610.98;;;14.20;36.21
58739;BME280;44512;53.046;18.604;2023-04-28T19:53:24;101612.82;;;14.06;36.48
58739;BME280;44512;53.046;18.604;2023-04-28T20:03:52;101610.64;;;13.95;36.83
58739;BME280;44512;53.046;18.604;2023-04-28T20:14:21;101609.98;;;13.87;36.97
58739;BME280;44512;53.046;18.604;2023-04-28T20:24:49;101610.96;;;13.79;37.19
58739;BME280;44512;53.046;18.604;2023-04-28T20:35:18;101612.61;;;13.73;37.37
58739;BME280;44512;53.046;18.604;2023-04-28T20:45:46;101609.22;;;13.65;37.59
58739;BME280;44512;53.046;18.604;2023-04-28T20:56:14;101593.25;;;13.55;37.80
58739;BME280;44512;53.046;18.604;2023-04-28T21:06:43;101595.66;;;13.43;38.09
58739;BME280;44512;53.046;18.604;2023-04-28T21:17:11;101594.52;;;13.31;38.30
58739;BME280;44512;53.046;18.604;2023-04-28T21:27:40;101582.88;;;13.16;38.49
58739;BME280;44512;53.046;18.604;2023-04-28T21:38:08;101568.78;;;13.06;38.76
58739;BME280;44512;53.046;18.604;2023-04-28T21:48:37;101551.34;;;12.93;38.92
58739;BME280;44512;53.046;18.604;2023-04-28T21:59:05;101542.01;;;12.81;39.07
58739;BME280;44512;53.046;18.604;2023-04-28T22:09:33;101533.09;;;12.66;39.27
58739;BME280;44512;53.046;18.604;2023-04-28T22:20:02;101523.79;;;12.54;39.50
58739;BME280;44512;53.046;18.604;2023-04-28T22:30:30;101504.73;;;12.47;39.63
58739;BME280;44512;53.046;18.604;2023-04-28T22:40:58;101499.88;;;12.42;39.74
58739;BME280;44512;53.046;18.604;2023-04-28T22:51:27;101493.20;;;12.45;39.80
58739;BME280;44512;53.046;18.604;2023-04-28T23:01:55;101477.32;;;12.42;39.93
58739;BME280;44512;53.046;18.604;2023-04-28T23:12:24;101471.42;;;12.38;40.13
58739;BME280;44512;53.046;18.604;2023-04-28T23:22:52;101464.33;;;12.37;40.23
58739;BME280;44512;53.046;18.604;2023-04-28T23:33:20;101447.78;;;12.32;40.46
58739;BME280;44512;53.046;18.604;2023-04-28T23:43:49;101438.08;;;12.23;40.74
58739;BME280;44512;53.046;18.604;2023-04-28T23:54:17;101411.09;;;12.15;40.81
